sensor_id;sensor_type;location;lat;lon;timestamp;pressure;altitude;pressure_sealevel;temperature;humidity
72414;BME280;60995;52.154;4.498;2023-05-17T00:01:22;102529.63;;;12.29;69.72
72414;BME280;60995;52.154;4.498;2023-05-17T00:03:38;102537.16;;;12.38;69.78
72414;BME280;60995;52.154;4.498;2023-05-17T00:05:54;102542.47;;;12.27;70.17
72414;BME280;60995;52.154;4.498;2023-05-17T00:08:11;102539.94;;;12.24;70.92
72414;BME280;60995;52.154;4.498;2023-05-17T00:10:28;102544.22;;;12.28;70.62
72414;BME280;60995;52.154;4.498;2023-05-17T00:12:44;102540.75;;;12.39;70.20
72414;BME280;60995;52.154;4.498;2023-05-17T00:15:01;102548.25;;;12.35;70.49
72414;BME280;60995;52.154;4.498;2023-05-17T00:17:17;102547.59;;;12.45;70.06
72414;BME280;60995;52.154;4.498;2023-05-17T00:19:33;102545.34;;;12.38;70.12
72414;BME280;60995;52.154;4.498;2023-05-17T00:21:50;102543.03;;;12.32;70.25
72414;BME280;60995;52.154;4.498;2023-05-17T00:24:06;102543.34;;;12.40;69.97
72414;BME280;60995;52.154;4.498;2023-05-17T00:26:24;102530.53;;;12.43;69.78
72414;BME280;60995;52.154;4.498;2023-05-17T00:28:40;102534.97;;;12.44;69.68
72414;BME280;60995;52.154;4.498;2023-05-17T00:30:56;102536.69;;;12.32;70.17
72414;BME280;60995;52.154;4.498;2023-05-17T00:33:12;102540.59;;;12.15;70.43
72414;BME280;60995;52.154;4.498;2023-05-17T00:35:29;102551.03;;;12.08;70.96
72414;BME280;60995;52.154;4.498;2023-05-17T00:37:45;102550.38;;;12.04;71.30
72414;BME280;60995;52.154;4.498;2023-05-17T00:40:04;102542.13;;;12.19;71.80
72414;BME280;60995;52.154;4.498;2023-05-17T00:42:22;102537.31;;;12.10;71.71
72414;BME280;60995;52.154;4.498;2023-05-17T00:44:39;102532.75;;;12.10;71.76
72414;BME280;60995;52.154;4.498;2023-05-17T00:46:55;102541.03;;;12.08;71.74
72414;BME280;60995;52.154;4.498;2023-05-17T00:49:14;102550.59;;;12.01;71.86
72414;BME280;60995;52.154;4.498;2023-05-17T00:51:31;102545.38;;;11.98;72.50
72414;BME280;60995;52.154;4.498;2023-05-17T00:53:48;102543.41;;;12.00;72.38
72414;BME280;60995;52.154;4.498;2023-05-17T00:56:05;102543.41;;;12.00;72.56
72414;BME280;60995;52.154;4.498;2023-05-17T00:58:22;102545.63;;;11.94;72.91
72414;BME280;60995;52.154;4.498;2023-05-17T01:00:40;102553.19;;;12.03;72.74
72414;BME280;60995;52.154;4.498;2023-05-17T01:02:56;102545.84;;;12.18;72.85
72414;BME280;60995;52.154;4.498;2023-05-17T01:05:13;102545.63;;;12.21;72.37
72414;BME280;60995;52.154;4.498;2023-05-17T01:07:30;102538.56;;;12.31;71.98
72414;BME280;60995;52.154;4.498;2023-05-17T01:09:47;102537.34;;;12.35;71.59
72414;BME280;60995;52.154;4.498;2023-05-17T01:15:18;102529.44;;;12.58;71.34
72414;BME280;60995;52.154;4.498;2023-05-17T01:20:37;102534.75;;;12.47;71.45
72414;BME280;60995;52.154;4.498;2023-05-17T01:23:40;102538.47;;;12.46;71.25
72414;BME280;60995;52.154;4.498;2023-05-17T01:26:15;102541.06;;;12.60;70.80
72414;BME280;60995;52.154;4.498;2023-05-17T01:28:37;102545.44;;;12.76;70.25
72414;BME280;60995;52.154;4.498;2023-05-17T01:30:54;102544.56;;;12.62;70.15
72414;BME280;60995;52.154;4.498;2023-05-17T01:33:13;102542.28;;;12.56;70.60
72414;BME280;60995;52.154;4.498;2023-05-17T01:35:31;102541.94;;;12.73;70.53
72414;BME280;60995;52.154;4.498;2023-05-17T01:37:47;102544.56;;;12.75;70.11
72414;BME280;60995;52.154;4.498;2023-05-17T01:40:06;102539.31;;;12.59;70.59
72414;BME280;60995;52.154;4.498;2023-05-17T01:42:30;102539.97;;;12.50;70.86
72414;BME280;60995;52.154;4.498;2023-05-17T01:45:05;102528.34;;;12.48;70.71
72414;BME280;60995;52.154;4.498;2023-05-17T01:50:50;102538.34;;;12.34;71.13
72414;BME280;60995;52.154;4.498;2023-05-17T01:56:07;102545.44;;;12.50;71.14
72414;BME280;60995;52.154;4.498;2023-05-17T01:58:27;102537.59;;;12.58;70.66
72414;BME280;60995;52.154;4.498;2023-05-17T02:00:46;102546.50;;;12.60;70.43
72414;BME280;60995;52.154;4.498;2023-05-17T02:03:05;102548.16;;;12.76;70.39
72414;BME280;60995;52.154;4.498;2023-05-17T02:05:21;102546.94;;;12.67;70.30
72414;BME280;60995;52.154;4.498;2023-05-17T02:07:38;102539.97;;;12.76;69.88
72414;BME280;60995;52.154;4.498;2023-05-17T02:09:55;102535.06;;;12.81;69.79
72414;BME280;60995;52.154;4.498;2023-05-17T02:12:11;102537.78;;;12.81;69.93
72414;BME280;60995;52.154;4.498;2023-05-17T02:14:27;102532.47;;;12.66;70.24
72414;BME280;60995;52.154;4.498;2023-05-17T02:16:44;102530.59;;;12.54;71.09
72414;BME280;60995;52.154;4.498;2023-05-17T02:19:00;102535.31;;;12.52;70.92
72414;BME280;60995;52.154;4.498;2023-05-17T02:21:16;102536.28;;;12.38;71.43
72414;BME280;60995;52.154;4.498;2023-05-17T02:23:33;102535.06;;;12.29;71.82
72414;BME280;60995;52.154;4.498;2023-05-17T02:25:49;102545.97;;;12.42;71.79
72414;BME280;60995;52.154;4.498;2023-05-17T02:28:06;102548.56;;;12.44;72.03
72414;BME280;60995;52.154;4.498;2023-05-17T02:30:25;102541.72;;;12.64;71.76
72414;BME280;60995;52.154;4.498;2023-05-17T02:32:41;102546.75;;;12.70;71.18
72414;BME280;60995;52.154;4.498;2023-05-17T02:34:58;102548.59;;;12.69;70.95
72414;BME280;60995;52.154;4.498;2023-05-17T02:37:14;102553.72;;;12.61;71.41
72414;BME280;60995;52.154;4.498;2023-05-17T02:39:34;102557.22;;;12.50;71.35
72414;BME280;60995;52.154;4.498;2023-05-17T02:41:50;102551.97;;;12.60;71.36
72414;BME280;60995;52.154;4.498;2023-05-17T02:44:06;102562.13;;;12.58;71.50
72414;BME280;60995;52.154;4.498;2023-05-17T02:46:22;102550.00;;;12.49;71.72
72414;BME280;60995;52.154;4.498;2023-05-17T02:48:39;102550.22;;;12.33;71.80
72414;BME280;60995;52.154;4.498;2023-05-17T02:50:55;102560.00;;;12.49;71.62
72414;BME280;60995;52.154;4.498;2023-05-17T02:53:11;102559.34;;;12.32;71.75
72414;BME280;60995;52.154;4.498;2023-05-17T02:55:28;102555.66;;;12.33;71.52
72414;BME280;60995;52.154;4.498;2023-05-17T02:57:44;102552.63;;;12.51;71.19
72414;BME280;60995;52.154;4.498;2023-05-17T03:00:01;102556.44;;;12.61;70.98
72414;BME280;60995;52.154;4.498;2023-05-17T03:02:17;102554.56;;;12.49;71.18
72414;BME280;60995;52.154;4.498;2023-05-17T03:04:33;102555.78;;;12.57;71.14
72414;BME280;60995;52.154;4.498;2023-05-17T03:06:50;102556.88;;;12.55;70.99
72414;BME280;60995;52.154;4.498;2023-05-17T03:09:06;102559.91;;;12.37;71.53
72414;BME280;60995;52.154;4.498;2023-05-17T03:11:23;102561.22;;;12.45;71.60
72414;BME280;60995;52.154;4.498;2023-05-17T03:13:39;102564.81;;;12.45;71.50
72414;BME280;60995;52.154;4.498;2023-05-17T03:15:56;102566.97;;;12.27;71.58
72414;BME280;60995;52.154;4.498;2023-05-17T03:18:12;102565.44;;;12.23;71.43
72414;BME280;60995;52.154;4.498;2023-05-17T03:20:28;102561.38;;;12.16;71.07
72414;BME280;60995;52.154;4.498;2023-05-17T03:22:45;102566.84;;;12.16;70.70
72414;BME280;60995;52.154;4.498;2023-05-17T03:25:01;102571.75;;;12.23;70.51
72414;BME280;60995;52.154;4.498;2023-05-17T03:27:20;102570.19;;;12.06;70.46
72414;BME280;60995;52.154;4.498;2023-05-17T03:29:36;102575.22;;;12.13;71.21
72414;BME280;60995;52.154;4.498;2023-05-17T03:31:52;102576.59;;;12.05;70.54
72414;BME280;60995;52.154;4.498;2023-05-17T03:34:09;102585.38;;;11.96;70.62
72414;BME280;60995;52.154;4.498;2023-05-17T03:36:27;102592.59;;;11.97;70.20
72414;BME280;60995;52.154;4.498;2023-05-17T03:38:44;102585.72;;;12.04;70.08
72414;BME280;60995;52.154;4.498;2023-05-17T03:41:00;102586.28;;;12.10;69.52
72414;BME280;60995;52.154;4.498;2023-05-17T03:43:17;102580.81;;;11.97;69.15
72414;BME280;60995;52.154;4.498;2023-05-17T03:45:35;102582.13;;;11.77;69.28
72414;BME280;60995;52.154;4.498;2023-05-17T03:47:51;102589.88;;;11.83;68.93
72414;BME280;60995;52.154;4.498;2023-05-17T03:50:08;102585.75;;;11.63;68.86
72414;BME280;60995;52.154;4.498;2023-05-17T03:52:27;102592.03;;;11.78;68.42
72414;BME280;60995;52.154;4.498;2023-05-17T03:54:43;102595.66;;;11.64;68.54
72414;BME280;60995;52.154;4.498;2023-05-17T03:57:00;102598.50;;;11.62;68.65
72414;BME280;60995;52.154;4.498;2023-05-17T03:59:16;102602.84;;;11.65;68.68
72414;BME280;60995;52.154;4.498;2023-05-17T04:01:32;102609.47;;;11.61;68.24
72414;BME280;60995;52.154;4.498;2023-05-17T04:03:49;102602.97;;;11.63;68.05
72414;BME280;60995;52.154;4.498;2023-05-17T04:06:05;102600.94;;;11.80;67.73
72414;BME280;60995;52.154;4.498;2023-05-17T04:08:22;102605.81;;;11.89;67.32
72414;BME280;60995;52.154;4.498;2023-05-17T04:10:39;102610.47;;;11.87;67.05
72414;BME280;60995;52.154;4.498;2023-05-17T04:12:56;102612.72;;;11.80;67.00
72414;BME280;60995;52.154;4.498;2023-05-17T04:15:13;102607.06;;;11.83;67.41
72414;BME280;60995;52.154;4.498;2023-05-17T04:17:29;102616.16;;;11.97;66.81
72414;BME280;60995;52.154;4.498;2023-05-17T04:19:45;102616.19;;;11.82;66.64
72414;BME280;60995;52.154;4.498;2023-05-17T04:22:02;102624.28;;;11.84;66.68
72414;BME280;60995;52.154;4.498;2023-05-17T04:24:18;102619.41;;;11.74;66.78
72414;BME280;60995;52.154;4.498;2023-05-17T04:26:35;102620.84;;;11.95;66.35
72414;BME280;60995;52.154;4.498;2023-05-17T04:28:51;102627.34;;;11.92;66.28
72414;BME280;60995;52.154;4.498;2023-05-17T04:31:08;102637.94;;;11.82;65.94
72414;BME280;60995;52.154;4.498;2023-05-17T04:33:26;102641.66;;;11.96;65.74
72414;BME280;60995;52.154;4.498;2023-05-17T04:35:42;102636.28;;;12.08;65.32
72414;BME280;60995;52.154;4.498;2023-05-17T04:37:58;102646.09;;;11.97;65.43
72414;BME280;60995;52.154;4.498;2023-05-17T04:40:15;102647.00;;;11.97;65.52
72414;BME280;60995;52.154;4.498;2023-05-17T04:42:32;102655.50;;;12.05;65.27
72414;BME280;60995;52.154;4.498;2023-05-17T04:44:48;102654.31;;;12.10;64.88
72414;BME280;60995;52.154;4.498;2023-05-17T04:47:04;102658.63;;;12.27;64.63
72414;BME280;60995;52.154;4.498;2023-05-17T04:49:21;102661.72;;;12.35;64.09
72414;BME280;60995;52.154;4.498;2023-05-17T04:51:39;102662.56;;;12.35;63.95
72414;BME280;60995;52.154;4.498;2023-05-17T04:53:56;102670.34;;;12.41;63.41
72414;BME280;60995;52.154;4.498;2023-05-17T04:56:15;102667.94;;;12.50;63.41
72414;BME280;60995;52.154;4.498;2023-05-17T04:58:32;102667.00;;;12.64;62.55
72414;BME280;60995;52.154;4.498;2023-05-17T05:00:51;102674.75;;;12.70;62.09
72414;BME280;60995;52.154;4.498;2023-05-17T05:03:07;102671.59;;;12.89;61.68
72414;BME280;60995;52.154;4.498;2023-05-17T05:05:24;102681.63;;;12.88;61.48
72414;BME280;60995;52.154;4.498;2023-05-17T05:07:41;102677.56;;;12.68;61.71
72414;BME280;60995;52.154;4.498;2023-05-17T05:09:57;102681.38;;;12.79;61.76
72414;BME280;60995;52.154;4.498;2023-05-17T05:12:13;102682.03;;;12.69;61.53
72414;BME280;60995;52.154;4.498;2023-05-17T05:14:30;102680.56;;;13.17;60.57
72414;BME280;60995;52.154;4.498;2023-05-17T05:16:46;102694.72;;;13.09;59.80
72414;BME280;60995;52.154;4.498;2023-05-17T05:19:02;102697.66;;;13.06;59.82
72414;BME280;60995;52.154;4.498;2023-05-17T05:21:19;102705.41;;;13.25;59.47
72414;BME280;60995;52.154;4.498;2023-05-17T05:23:35;102702.16;;;13.46;58.54
72414;BME280;60995;52.154;4.498;2023-05-17T05:25:54;102705.09;;;14.05;57.64
72414;BME280;60995;52.154;4.498;2023-05-17T05:28:11;102714.22;;;14.66;56.32
72414;BME280;60995;52.154;4.498;2023-05-17T05:30:28;102704.53;;;15.99;52.70
72414;BME280;60995;52.154;4.498;2023-05-17T05:32:44;102711.53;;;17.63;47.39
72414;BME280;60995;52.154;4.498;2023-05-17T05:35:00;102705.09;;;18.44;45.49
72414;BME280;60995;52.154;4.498;2023-05-17T05:37:17;102696.41;;;19.73;41.38
72414;BME280;60995;52.154;4.498;2023-05-17T05:39:39;102696.88;;;20.42;38.54
72414;BME280;60995;52.154;4.498;2023-05-17T05:41:56;102709.88;;;19.76;39.32
72414;BME280;60995;52.154;4.498;2023-05-17T05:44:15;102722.59;;;18.62;41.58
72414;BME280;60995;52.154;4.498;2023-05-17T05:46:34;102705.22;;;19.48;40.96
72414;BME280;60995;52.154;4.498;2023-05-17T05:48:50;102710.38;;;21.42;36.74
72414;BME280;60995;52.154;4.498;2023-05-17T05:51:07;102707.34;;;22.96;34.15
72414;BME280;60995;52.154;4.498;2023-05-17T05:53:24;102714.31;;;24.05;32.20
72414;BME280;60995;52.154;4.498;2023-05-17T05:55:41;102711.41;;;25.14;30.00
72414;BME280;60995;52.154;4.498;2023-05-17T05:57:57;102710.06;;;26.00;28.41
72414;BME280;60995;52.154;4.498;2023-05-17T06:00:14;102719.41;;;24.24;29.92
72414;BME280;60995;52.154;4.498;2023-05-17T06:02:33;102729.41;;;23.54;31.65
72414;BME280;60995;52.154;4.498;2023-05-17T06:04:50;102726.53;;;23.31;31.61
72414;BME280;60995;52.154;4.498;2023-05-17T06:07:07;102724.28;;;23.10;31.62
72414;BME280;60995;52.154;4.498;2023-05-17T06:09:24;102726.69;;;24.49;30.15
72414;BME280;60995;52.154;4.498;2023-05-17T06:11:40;102727.44;;;25.42;28.19
72414;BME280;60995;52.154;4.498;2023-05-17T06:13:57;102729.41;;;24.57;29.40
72414;BME280;60995;52.154;4.498;2023-05-17T06:16:13;102738.47;;;23.32;31.03
72414;BME280;60995;52.154;4.498;2023-05-17T06:18:30;102732.59;;;22.44;32.19
72414;BME280;60995;52.154;4.498;2023-05-17T06:20:46;102727.03;;;21.85;33.54
72414;BME280;60995;52.154;4.498;2023-05-17T06:23:03;102738.84;;;20.36;36.29
72414;BME280;60995;52.154;4.498;2023-05-17T06:25:20;102745.38;;;20.53;36.42
72414;BME280;60995;52.154;4.498;2023-05-17T06:27:39;102739.94;;;20.61;35.81
72414;BME280;60995;52.154;4.498;2023-05-17T06:29:56;102743.94;;;22.33;33.62
72414;BME280;60995;52.154;4.498;2023-05-17T06:32:12;102752.59;;;22.29;32.59
72414;BME280;60995;52.154;4.498;2023-05-17T06:34:28;102746.44;;;21.14;34.16
72414;BME280;60995;52.154;4.498;2023-05-17T06:36:45;102746.19;;;20.81;35.94
72414;BME280;60995;52.154;4.498;2023-05-17T06:39:01;102747.09;;;19.80;37.21
72414;BME280;60995;52.154;4.498;2023-05-17T06:41:21;102738.06;;;19.97;38.10
72414;BME280;60995;52.154;4.498;2023-05-17T06:43:37;102743.59;;;19.03;39.67
72414;BME280;60995;52.154;4.498;2023-05-17T06:45:59;102748.44;;;17.49;42.74
72414;BME280;60995;52.154;4.498;2023-05-17T06:48:18;102752.88;;;16.65;45.50
72414;BME280;60995;52.154;4.498;2023-05-17T06:50:35;102750.75;;;16.36;46.60
72414;BME280;60995;52.154;4.498;2023-05-17T06:52:51;102754.97;;;16.41;47.40
72414;BME280;60995;52.154;4.498;2023-05-17T06:55:08;102762.16;;;17.80;43.65
72414;BME280;60995;52.154;4.498;2023-05-17T06:57:24;102770.34;;;16.53;44.92
72414;BME280;60995;52.154;4.498;2023-05-17T06:59:41;102764.47;;;17.75;43.57
72414;BME280;60995;52.154;4.498;2023-05-17T07:01:57;102761.63;;;20.74;36.68
72414;BME280;60995;52.154;4.498;2023-05-17T07:04:18;102759.31;;;21.84;34.24
72414;BME280;60995;52.154;4.498;2023-05-17T07:06:34;102773.72;;;22.39;32.89
72414;BME280;60995;52.154;4.498;2023-05-17T07:08:50;102781.44;;;21.31;34.22
72414;BME280;60995;52.154;4.498;2023-05-17T07:11:07;102776.31;;;20.28;36.56
72414;BME280;60995;52.154;4.498;2023-05-17T07:13:23;102778.34;;;21.35;35.15
72414;BME280;60995;52.154;4.498;2023-05-17T07:15:40;102776.91;;;23.43;31.27
72414;BME280;60995;52.154;4.498;2023-05-17T07:17:56;102782.31;;;23.92;30.28
72414;BME280;60995;52.154;4.498;2023-05-17T07:20:14;102793.53;;;23.18;31.16
72414;BME280;60995;52.154;4.498;2023-05-17T07:22:30;102774.28;;;22.08;32.15
72414;BME280;60995;52.154;4.498;2023-05-17T07:24:47;102783.81;;;21.79;32.91
72414;BME280;60995;52.154;4.498;2023-05-17T07:27:03;102780.16;;;21.70;32.95
72414;BME280;60995;52.154;4.498;2023-05-17T07:29:20;102778.09;;;24.68;28.58
72414;BME280;60995;52.154;4.498;2023-05-17T07:31:36;102776.28;;;26.63;25.55
72414;BME280;60995;52.154;4.498;2023-05-17T07:33:53;102787.66;;;27.61;24.04
72414;BME280;60995;52.154;4.498;2023-05-17T07:36:10;102785.28;;;26.43;25.15
72414;BME280;60995;52.154;4.498;2023-05-17T07:38:26;102800.13;;;25.99;25.48
72414;BME280;60995;52.154;4.498;2023-05-17T07:40:44;102795.88;;;24.50;27.49
72414;BME280;60995;52.154;4.498;2023-05-17T07:43:00;102803.47;;;24.56;27.23
72414;BME280;60995;52.154;4.498;2023-05-17T07:45:17;102809.50;;;24.68;27.04
72414;BME280;60995;52.154;4.498;2023-05-17T07:47:33;102801.44;;;24.19;27.69
72414;BME280;60995;52.154;4.498;2023-05-17T07:49:49;102802.47;;;24.49;27.12
72414;BME280;60995;52.154;4.498;2023-05-17T07:52:07;102807.47;;;24.85;26.92
72414;BME280;60995;52.154;4.498;2023-05-17T07:54:24;102814.50;;;21.68;30.51
72414;BME280;60995;52.154;4.498;2023-05-17T07:56:44;102817.63;;;22.42;29.44
72414;BME280;60995;52.154;4.498;2023-05-17T07:59:01;102824.69;;;22.36;30.27
72414;BME280;60995;52.154;4.498;2023-05-17T08:01:17;102820.69;;;23.23;29.16
72414;BME280;60995;52.154;4.498;2023-05-17T08:03:34;102814.28;;;24.51;27.15
72414;BME280;60995;52.154;4.498;2023-05-17T08:05:51;102822.44;;;21.97;30.00
72414;BME280;60995;52.154;4.498;2023-05-17T08:08:08;102831.59;;;21.97;30.85
72414;BME280;60995;52.154;4.498;2023-05-17T08:10:26;102813.97;;;25.39;25.89
72414;BME280;60995;52.154;4.498;2023-05-17T08:12:42;102812.31;;;25.30;25.54
72414;BME280;60995;52.154;4.498;2023-05-17T08:14:59;102825.06;;;26.58;24.24
72414;BME280;60995;52.154;4.498;2023-05-17T08:17:15;102823.06;;;24.63;25.77
72414;BME280;60995;52.154;4.498;2023-05-17T08:19:31;102821.25;;;26.08;24.14
72414;BME280;60995;52.154;4.498;2023-05-17T08:21:48;102826.53;;;24.88;25.85
72414;BME280;60995;52.154;4.498;2023-05-17T08:24:04;102823.78;;;26.39;24.46
72414;BME280;60995;52.154;4.498;2023-05-17T08:26:21;102837.56;;;24.42;26.41
72414;BME280;60995;52.154;4.498;2023-05-17T08:28:37;102828.19;;;25.59;24.96
72414;BME280;60995;52.154;4.498;2023-05-17T08:30:54;102831.75;;;25.68;24.34
72414;BME280;60995;52.154;4.498;2023-05-17T08:33:10;102821.31;;;25.85;23.73
72414;BME280;60995;52.154;4.498;2023-05-17T08:35:26;102834.09;;;24.40;26.33
72414;BME280;60995;52.154;4.498;2023-05-17T08:37:43;102826.94;;;22.41;28.32
72414;BME280;60995;52.154;4.498;2023-05-17T08:39:59;102828.94;;;22.73;28.89
72414;BME280;60995;52.154;4.498;2023-05-17T08:42:22;102819.44;;;24.54;26.55
72414;BME280;60995;52.154;4.498;2023-05-17T08:44:45;102829.66;;;26.00;24.57
72414;BME280;60995;52.154;4.498;2023-05-17T08:47:05;102831.19;;;25.87;25.36
72414;BME280;60995;52.154;4.498;2023-05-17T08:49:24;102836.66;;;25.81;25.46
72414;BME280;60995;52.154;4.498;2023-05-17T08:51:45;102819.75;;;27.00;24.10
72414;BME280;60995;52.154;4.498;2023-05-17T08:54:04;102823.84;;;26.46;24.49
72414;BME280;60995;52.154;4.498;2023-05-17T08:56:24;102820.00;;;26.11;24.62
72414;BME280;60995;52.154;4.498;2023-05-17T08:58:50;102826.84;;;24.93;25.63
72414;BME280;60995;52.154;4.498;2023-05-17T09:01:11;102832.44;;;23.00;28.38
72414;BME280;60995;52.154;4.498;2023-05-17T09:03:29;102836.09;;;23.09;28.54
72414;BME280;60995;52.154;4.498;2023-05-17T09:05:52;102826.09;;;25.46;26.00
72414;BME280;60995;52.154;4.498;2023-05-17T09:08:09;102827.59;;;26.90;23.79
72414;BME280;60995;52.154;4.498;2023-05-17T09:10:28;102842.00;;;25.29;25.41
72414;BME280;60995;52.154;4.498;2023-05-17T09:12:47;102836.00;;;26.60;24.19
72414;BME280;60995;52.154;4.498;2023-05-17T09:15:20;102830.69;;;25.69;25.32
72414;BME280;60995;52.154;4.498;2023-05-17T09:17:39;102834.47;;;24.37;26.18
72414;BME280;60995;52.154;4.498;2023-05-17T09:19:57;102838.13;;;24.92;25.52
72414;BME280;60995;52.154;4.498;2023-05-17T09:22:17;102829.56;;;26.23;24.01
72414;BME280;60995;52.154;4.498;2023-05-17T09:24:34;102832.91;;;27.35;22.50
72414;BME280;60995;52.154;4.498;2023-05-17T09:26:51;102839.69;;;25.33;24.49
72414;BME280;60995;52.154;4.498;2023-05-17T09:29:12;102843.88;;;23.38;25.57
72414;BME280;60995;52.154;4.498;2023-05-17T09:31:29;102834.28;;;23.90;25.92
72414;BME280;60995;52.154;4.498;2023-05-17T09:33:48;102836.16;;;25.24;24.47
72414;BME280;60995;52.154;4.498;2023-05-17T09:36:20;102839.13;;;23.97;26.40
72414;BME280;60995;52.154;4.498;2023-05-17T09:38:38;102845.97;;;24.88;25.02
72414;BME280;60995;52.154;4.498;2023-05-17T09:40:54;102833.00;;;25.50;24.70
72414;BME280;60995;52.154;4.498;2023-05-17T09:43:11;102832.28;;;27.11;22.32
72414;BME280;60995;52.154;4.498;2023-05-17T09:45:30;102819.84;;;27.35;21.84
72414;BME280;60995;52.154;4.498;2023-05-17T09:47:47;102838.66;;;26.02;23.45
72414;BME280;60995;52.154;4.498;2023-05-17T09:50:04;102840.19;;;26.86;22.66
72414;BME280;60995;52.154;4.498;2023-05-17T09:52:23;102843.97;;;23.86;25.34
72414;BME280;60995;52.154;4.498;2023-05-17T09:54:43;102848.06;;;24.63;24.84
72414;BME280;60995;52.154;4.498;2023-05-17T09:57:07;102841.63;;;23.58;26.57
72414;BME280;60995;52.154;4.498;2023-05-17T09:59:26;102832.28;;;24.55;25.31
72414;BME280;60995;52.154;4.498;2023-05-17T10:01:44;102840.56;;;24.64;25.35
72414;BME280;60995;52.154;4.498;2023-05-17T10:04:08;102853.25;;;24.58;25.31
72414;BME280;60995;52.154;4.498;2023-05-17T10:06:26;102845.94;;;26.03;24.08
72414;BME280;60995;52.154;4.498;2023-05-17T10:08:45;102846.09;;;25.56;24.15
72414;BME280;60995;52.154;4.498;2023-05-17T10:11:11;102843.56;;;25.08;24.26
72414;BME280;60995;52.154;4.498;2023-05-17T10:13:32;102849.19;;;26.88;22.30
72414;BME280;60995;52.154;4.498;2023-05-17T10:15:52;102850.69;;;26.32;22.89
72414;BME280;60995;52.154;4.498;2023-05-17T10:18:10;102855.19;;;26.18;23.66
72414;BME280;60995;52.154;4.498;2023-05-17T10:20:29;102854.53;;;25.48;24.40
72414;BME280;60995;52.154;4.498;2023-05-17T10:22:45;102856.16;;;24.96;25.80
72414;BME280;60995;52.154;4.498;2023-05-17T10:25:04;102853.88;;;25.61;25.32
72414;BME280;60995;52.154;4.498;2023-05-17T10:27:22;102860.56;;;24.82;26.67
72414;BME280;60995;52.154;4.498;2023-05-17T10:29:41;102850.81;;;25.56;25.24
72414;BME280;60995;52.154;4.498;2023-05-17T10:32:02;102854.38;;;22.77;29.04
72414;BME280;60995;52.154;4.498;2023-05-17T10:34:22;102856.28;;;22.34;29.88
72414;BME280;60995;52.154;4.498;2023-05-17T10:36:43;102853.34;;;23.85;27.97
72414;BME280;60995;52.154;4.498;2023-05-17T10:39:01;102851.94;;;23.89;28.47
72414;BME280;60995;52.154;4.498;2023-05-17T10:41:21;102852.00;;;23.07;28.89
72414;BME280;60995;52.154;4.498;2023-05-17T10:43:41;102848.91;;;23.43;28.43
72414;BME280;60995;52.154;4.498;2023-05-17T10:46:02;102862.28;;;24.20;27.54
72414;BME280;60995;52.154;4.498;2023-05-17T10:48:19;102855.13;;;24.57;26.83
72414;BME280;60995;52.154;4.498;2023-05-17T10:50:39;102858.41;;;25.77;25.42
72414;BME280;60995;52.154;4.498;2023-05-17T10:52:57;102858.00;;;24.09;27.12
72414;BME280;60995;52.154;4.498;2023-05-17T10:55:19;102866.28;;;22.61;29.31
72414;BME280;60995;52.154;4.498;2023-05-17T10:57:43;102867.56;;;22.06;30.40
72414;BME280;60995;52.154;4.498;2023-05-17T11:00:00;102859.56;;;21.68;30.81
72414;BME280;60995;52.154;4.498;2023-05-17T11:02:23;102859.94;;;22.93;29.08
72414;BME280;60995;52.154;4.498;2023-05-17T11:04:43;102863.16;;;22.56;29.78
72414;BME280;60995;52.154;4.498;2023-05-17T11:09:35;102866.88;;;23.06;28.87
72414;BME280;60995;52.154;4.498;2023-05-17T11:12:04;102867.75;;;23.64;28.45
72414;BME280;60995;52.154;4.498;2023-05-17T11:14:25;102872.69;;;24.10;27.26
72414;BME280;60995;52.154;4.498;2023-05-17T11:16:41;102869.00;;;23.53;27.86
72414;BME280;60995;52.154;4.498;2023-05-17T11:19:08;102865.19;;;23.21;28.36
72414;BME280;60995;52.154;4.498;2023-05-17T11:21:27;102878.50;;;20.73;31.93
72414;BME280;60995;52.154;4.498;2023-05-17T11:23:52;102882.88;;;20.93;32.28
72414;BME280;60995;52.154;4.498;2023-05-17T11:26:20;102874.25;;;22.29;30.05
72414;BME280;60995;52.154;4.498;2023-05-17T11:29:01;102860.25;;;22.74;29.21
72414;BME280;60995;52.154;4.498;2023-05-17T11:31:32;102864.47;;;22.43;29.17
72414;BME280;60995;52.154;4.498;2023-05-17T11:33:52;102858.81;;;22.61;29.31
72414;BME280;60995;52.154;4.498;2023-05-17T11:36:15;102868.84;;;21.85;30.04
72414;BME280;60995;52.154;4.498;2023-05-17T11:38:35;102868.63;;;21.34;31.11
72414;BME280;60995;52.154;4.498;2023-05-17T11:40:55;102866.06;;;21.85;30.68
72414;BME280;60995;52.154;4.498;2023-05-17T11:43:18;102869.91;;;21.48;31.11
72414;BME280;60995;52.154;4.498;2023-05-17T11:45:43;102885.88;;;21.54;30.41
72414;BME280;60995;52.154;4.498;2023-05-17T11:48:02;102873.53;;;21.04;31.77
72414;BME280;60995;52.154;4.498;2023-05-17T11:50:19;102863.91;;;20.07;32.88
72414;BME280;60995;52.154;4.498;2023-05-17T11:52:39;102858.69;;;20.87;31.90
72414;BME280;60995;52.154;4.498;2023-05-17T11:54:57;102864.16;;;20.69;32.04
72414;BME280;60995;52.154;4.498;2023-05-17T11:57:14;102850.78;;;20.92;32.15
72414;BME280;60995;52.154;4.498;2023-05-17T11:59:36;102864.47;;;20.10;33.07
72414;BME280;60995;52.154;4.498;2023-05-17T12:01:56;102862.06;;;20.25;32.39
72414;BME280;60995;52.154;4.498;2023-05-17T12:04:13;102857.63;;;19.57;33.99
72414;BME280;60995;52.154;4.498;2023-05-17T12:06:38;102864.25;;;19.84;34.36
72414;BME280;60995;52.154;4.498;2023-05-17T12:08:54;102866.06;;;19.46;34.12
72414;BME280;60995;52.154;4.498;2023-05-17T12:11:13;102853.19;;;18.97;35.35
72414;BME280;60995;52.154;4.498;2023-05-17T12:13:33;102859.50;;;19.57;35.13
72414;BME280;60995;52.154;4.498;2023-05-17T12:15:54;102858.38;;;19.20;35.61
72414;BME280;60995;52.154;4.498;2023-05-17T12:18:12;102856.41;;;19.89;34.58